Home > Products > Valid Products > TAF

000
FTUS45 KPUB 030215 AAA
TAFPUB
TAF AMD
KPUB 030215Z 0302/0324 08009KT P6SM SCT120
     FM030500 VRB06KT P6SM SKC
     FM031000 VRB06KT P6SM SCT010
     FM031600 VRB06KT P6SM FEW110
     FM032000 20011KT P6SM SCT110=



000
FTUS45 KPUB 030215 AAA
TAFPUB
TAF AMD
KPUB 030215Z 0302/0324 08009KT P6SM SCT120
     FM030500 VRB06KT P6SM SKC
     FM031000 VRB06KT P6SM SCT010
     FM031600 VRB06KT P6SM FEW110
     FM032000 20011KT P6SM SCT110=



000
FTUS45 KPUB 022338
TAFCOS
TAF
KCOS 022338Z 0300/0324 13014KT P6SM SCT120 SCT200
     FM030200 11008KT P6SM SCT120
     FM030700 VRB05KT P6SM SCT010
     FM031600 VRB06KT P6SM FEW110
     FM032000 19014KT P6SM SCT100 SCT200=



000
FTUS45 KPUB 022338
TAFPUB
TAF
KPUB 022338Z 0300/0324 12012KT P6SM SCT120
     FM030300 VRB06KT P6SM SKC
     FM031000 VRB06KT P6SM SCT010
     FM031600 VRB06KT P6SM FEW110
     FM032000 20011KT P6SM SCT110=



000
FTUS45 KPUB 022338
TAFALS
TAF
KALS 022338Z 0300/0324 20009KT P6SM SCT100 SCT200
     FM030300 VRB06KT P6SM SKC
     FM032000 23014KT P6SM SCT100 SCT200=



000
FTUS45 KPUB 022338
TAFALS
TAF
KALS 022338Z 0300/0324 20009KT P6SM SCT100 SCT200
     FM030300 VRB06KT P6SM SKC
     FM032000 23014KT P6SM SCT100 SCT200=



000
FTUS45 KPUB 022338
TAFPUB
TAF
KPUB 022338Z 0300/0324 12012KT P6SM SCT120
     FM030300 VRB06KT P6SM SKC
     FM031000 VRB06KT P6SM SCT010
     FM031600 VRB06KT P6SM FEW110
     FM032000 20011KT P6SM SCT110=



000
FTUS45 KPUB 022338
TAFCOS
TAF
KCOS 022338Z 0300/0324 13014KT P6SM SCT120 SCT200
     FM030200 11008KT P6SM SCT120
     FM030700 VRB05KT P6SM SCT010
     FM031600 VRB06KT P6SM FEW110
     FM032000 19014KT P6SM SCT100 SCT200=



000
FTUS45 KPUB 022218 AAA
TAFALS
TAF AMD
KALS 022218Z 0222/0318 14008KT P6SM SCT100 SCT200
     FM030300 VRB06KT P6SM SKC=



000
FTUS45 KPUB 022218 AAA
TAFALS
TAF AMD
KALS 022218Z 0222/0318 14008KT P6SM SCT100 SCT200
     FM030300 VRB06KT P6SM SKC=



000
FTUS45 KPUB 021722
TAFCOS
TAF
KCOS 021722Z 0218/0318 16012G22KT P6SM FEW030
     FM022000 17012G22KT P6SM SCT100
     FM030200 15007KT P6SM FEW100
     FM030500 05006KT P6SM SKC=



000
FTUS45 KPUB 021722
TAFALS
TAF
KALS 021722Z 0218/0318 VRB05KT P6SM SKC
     FM021900 24012KT P6SM SCT100
     FM030300 VRB06KT P6SM SKC=



000
FTUS45 KPUB 021722
TAFPUB
TAF
KPUB 021722Z 0218/0318 15009KT P6SM FEW030
     FM022100 12010KT P6SM SCT110
     FM030300 04008KT P6SM SKC=



000
FTUS45 KPUB 021722
TAFPUB
TAF
KPUB 021722Z 0218/0318 15009KT P6SM FEW030
     FM022100 12010KT P6SM SCT110
     FM030300 04008KT P6SM SKC=



000
FTUS45 KPUB 021722
TAFALS
TAF
KALS 021722Z 0218/0318 VRB05KT P6SM SKC
     FM021900 24012KT P6SM SCT100
     FM030300 VRB06KT P6SM SKC=



000
FTUS45 KPUB 021722
TAFCOS
TAF
KCOS 021722Z 0218/0318 16012G22KT P6SM FEW030
     FM022000 17012G22KT P6SM SCT100
     FM030200 15007KT P6SM FEW100
     FM030500 05006KT P6SM SKC=



000
FTUS45 KPUB 021625 AAA
TAFCOS
TAF AMD
KCOS 021625Z 0216/0312 01005KT P6SM BKN015
      TEMPO 0216/0217 SCT015
     FM021700 16007KT P6SM SCT015
     FM021900 17013KT P6SM SCT100
     FM030200 15007KT P6SM FEW100
     FM030500 05006KT P6SM SKC=



000
FTUS45 KPUB 021625 AAA
TAFCOS
TAF AMD
KCOS 021625Z 0216/0312 01005KT P6SM BKN015
      TEMPO 0216/0217 SCT015
     FM021700 16007KT P6SM SCT015
     FM021900 17013KT P6SM SCT100
     FM030200 15007KT P6SM FEW100
     FM030500 05006KT P6SM SKC=



000
FTUS45 KPUB 021120
TAFALS
TAF
KALS 021120Z 0212/0312 VRB05KT P6SM SKC
     FM021900 24012KT P6SM SCT100
     FM030300 VRB06KT P6SM SKC=



000
FTUS45 KPUB 021120
TAFPUB
TAF
KPUB 021120Z 0212/0312 02006KT P6SM BKN020
      TEMPO 0212/0216 SCT020
     FM021600 VRB05KT P6SM SCT020
     FM021900 15009KT P6SM FEW110
     FM022300 12010KT P6SM SCT110
     FM030300 04008KT P6SM SKC=



000
FTUS45 KPUB 021120
TAFCOS
TAF
KCOS 021120Z 0212/0312 01005KT P6SM BKN015
      TEMPO 0213/0215 SCT015
     FM021500 16007KT P6SM SCT015
     FM021900 17013KT P6SM SCT100
     FM030200 15007KT P6SM FEW100
     FM030500 05006KT P6SM SKC=



000
FTUS45 KPUB 021120
TAFPUB
TAF
KPUB 021120Z 0212/0312 02006KT P6SM BKN020
      TEMPO 0212/0216 SCT020
     FM021600 VRB05KT P6SM SCT020
     FM021900 15009KT P6SM FEW110
     FM022300 12010KT P6SM SCT110
     FM030300 04008KT P6SM SKC=



000
FTUS45 KPUB 021120
TAFALS
TAF
KALS 021120Z 0212/0312 VRB05KT P6SM SKC
     FM021900 24012KT P6SM SCT100
     FM030300 VRB06KT P6SM SKC=



000
FTUS45 KPUB 021120
TAFCOS
TAF
KCOS 021120Z 0212/0312 01005KT P6SM BKN015
      TEMPO 0213/0215 SCT015
     FM021500 16007KT P6SM SCT015
     FM021900 17013KT P6SM SCT100
     FM030200 15007KT P6SM FEW100
     FM030500 05006KT P6SM SKC=



000
FTUS45 KPUB 020910 AAB
TAFCOS
TAF AMD
KCOS 020910Z 0209/0306 01006KT P6SM BKN012
      TEMPO 0212/0215 SCT012
     FM021500 18007KT P6SM SCT012
     FM022000 17013KT P6SM SCT100
     FM030200 15007KT P6SM FEW100
     FM030500 05006KT P6SM SKC=



000
FTUS45 KPUB 020910 AAB
TAFCOS
TAF AMD
KCOS 020910Z 0209/0306 01006KT P6SM BKN012
      TEMPO 0212/0215 SCT012
     FM021500 18007KT P6SM SCT012
     FM022000 17013KT P6SM SCT100
     FM030200 15007KT P6SM FEW100
     FM030500 05006KT P6SM SKC=



000
FTUS45 KPUB 020822 AAC
TAFPUB
TAF AMD
KPUB 020822Z 0208/0306 02006KT P6SM BKN020
      TEMPO 0212/0215 SCT020
     FM021500 VRB05KT P6SM SCT020
     FM021900 17009KT P6SM FEW110
     FM022300 12010KT P6SM SCT110
     FM030300 04008KT P6SM SKC=



000
FTUS45 KPUB 020822 AAC
TAFPUB
TAF AMD
KPUB 020822Z 0208/0306 02006KT P6SM BKN020
      TEMPO 0212/0215 SCT020
     FM021500 VRB05KT P6SM SCT020
     FM021900 17009KT P6SM FEW110
     FM022300 12010KT P6SM SCT110
     FM030300 04008KT P6SM SKC=



000
FTUS45 KPUB 020800 AAB
TAFPUB
TAF AMD
KPUB 020800Z 0208/0306 02006KT P6SM SKC
     FM021000 VRB05KT P6SM SCT015
      TEMPO 0212/0215 BKN015
     FM021900 17009KT P6SM FEW110
     FM022300 12010KT P6SM SCT110
     FM030300 04008KT P6SM SKC=



000
FTUS45 KPUB 020800 AAB
TAFPUB
TAF AMD
KPUB 020800Z 0208/0306 02006KT P6SM SKC
     FM021000 VRB05KT P6SM SCT015
      TEMPO 0212/0215 BKN015
     FM021900 17009KT P6SM FEW110
     FM022300 12010KT P6SM SCT110
     FM030300 04008KT P6SM SKC=



000
FTUS45 KPUB 020758 AAA
TAFCOS
TAF AMD
KCOS 020758Z 0208/0306 01006KT P6SM SKC
     FM021000 03005KT P6SM SCT010
     FM021600 18008KT P6SM SKC
     FM022000 17013KT P6SM SCT100
     FM030200 15007KT P6SM FEW100
     FM030500 05006KT P6SM SKC=



000
FTUS45 KPUB 020758 AAA
TAFCOS
TAF AMD
KCOS 020758Z 0208/0306 01006KT P6SM SKC
     FM021000 03005KT P6SM SCT010
     FM021600 18008KT P6SM SKC
     FM022000 17013KT P6SM SCT100
     FM030200 15007KT P6SM FEW100
     FM030500 05006KT P6SM SKC=



000
FTUS45 KPUB 020520
TAFALS
TAF
KALS 020520Z 0206/0306 VRB05KT P6SM SKC
     FM021900 24012KT P6SM SCT100
     FM030300 VRB06KT P6SM SKC=



000
FTUS45 KPUB 020520
TAFALS
TAF
KALS 020520Z 0206/0306 VRB05KT P6SM SKC
     FM021900 24012KT P6SM SCT100
     FM030300 VRB06KT P6SM SKC=



000
FTUS45 KPUB 020520
TAFCOS
TAF
KCOS 020520Z 0206/0306 04006KT P6SM SKC
     FM021600 18008KT P6SM SKC
     FM022000 17013KT P6SM SCT100
     FM030200 15007KT P6SM FEW100
     FM030500 05006KT P6SM SKC=



000
FTUS45 KPUB 020520
TAFPUB
TAF
KPUB 020520Z 0206/0306 04010KT P6SM SKC
     FM020800 VRB04KT P6SM SKC
     FM021900 17009KT P6SM FEW110
     FM022300 12010KT P6SM SCT110
     FM030300 04008KT P6SM SKC=



000
FTUS45 KPUB 020520
TAFPUB
TAF
KPUB 020520Z 0206/0306 04010KT P6SM SKC
     FM020800 VRB04KT P6SM SKC
     FM021900 17009KT P6SM FEW110
     FM022300 12010KT P6SM SCT110
     FM030300 04008KT P6SM SKC=



000
FTUS45 KPUB 020520
TAFCOS
TAF
KCOS 020520Z 0206/0306 04006KT P6SM SKC
     FM021600 18008KT P6SM SKC
     FM022000 17013KT P6SM SCT100
     FM030200 15007KT P6SM FEW100
     FM030500 05006KT P6SM SKC=



000
FTUS45 KPUB 012320
TAFALS
TAF
KALS 012320Z 0200/0224 27010KT P6SM FEW110
     FM020200 33008KT P6SM FEW110
     FM020500 VRB05KT P6SM SKC
     FM021900 24012KT P6SM SCT090=



000
FTUS45 KPUB 012320
TAFPUB
TAF
KPUB 012320Z 0200/0224 16010KT P6SM SCT110
     FM020200 02007KT P6SM FEW110
     FM020800 VRB04KT P6SM SKC
     FM021900 17009KT P6SM FEW110
     FM022300 10010KT P6SM SCT110=



000
FTUS45 KPUB 012320
TAFCOS
TAF
KCOS 012320Z 0200/0224 10010KT P6SM SCT110 SCT250
     FM020300 04006KT P6SM SKC
     FM021600 18008KT P6SM SKC
     FM022000 16013KT P6SM SCT100=



000
FTUS45 KPUB 012320
TAFPUB
TAF
KPUB 012320Z 0200/0224 16010KT P6SM SCT110
     FM020200 02007KT P6SM FEW110
     FM020800 VRB04KT P6SM SKC
     FM021900 17009KT P6SM FEW110
     FM022300 10010KT P6SM SCT110=



000
FTUS45 KPUB 012320
TAFALS
TAF
KALS 012320Z 0200/0224 27010KT P6SM FEW110
     FM020200 33008KT P6SM FEW110
     FM020500 VRB05KT P6SM SKC
     FM021900 24012KT P6SM SCT090=



000
FTUS45 KPUB 012320
TAFCOS
TAF
KCOS 012320Z 0200/0224 10010KT P6SM SCT110 SCT250
     FM020300 04006KT P6SM SKC
     FM021600 18008KT P6SM SKC
     FM022000 16013KT P6SM SCT100=



000
FTUS45 KPUB 012121 AAB
TAFPUB
TAF AMD
KPUB 012121Z 0121/0218 15010G20KT P6SM FEW080 SCT120
     FM012200 12013KT P6SM SCT110
     FM020300 VRB06KT P6SM FEW100=



000
FTUS45 KPUB 012121 AAB
TAFPUB
TAF AMD
KPUB 012121Z 0121/0218 15010G20KT P6SM FEW080 SCT120
     FM012200 12013KT P6SM SCT110
     FM020300 VRB06KT P6SM FEW100=



000
FTUS45 KPUB 012120 AAA
TAFCOS
TAF AMD
KCOS 012120Z 0121/0218 12010G20KT P6SM SCT070 SCT110
     FM012300 15012KT P6SM FEW070 SCT100
     FM020300 VRB06KT P6SM FEW080=



000
FTUS45 KPUB 011739
TAFCOS
TAF
KCOS 011739Z 0118/0218 16015G25KT P6SM FEW050 FEW100
     FM012200 15012KT P6SM FEW070 SCT100
     FM020300 VRB06KT P6SM FEW080=



000
FTUS45 KPUB 011739
TAFALS
TAF
KALS 011739Z 0118/0218 VRB06KT P6SM SKC
     FM011900 27014KT P6SM SCT090
     FM020100 33010KT P6SM FEW090
     FM020400 VRB04KT P6SM FEW090=



000
FTUS45 KPUB 011739
TAFPUB
TAF
KPUB 011739Z 0118/0218 14009KT P6SM FEW070 FEW120
     FM012200 09015KT P6SM SCT110
     FM020300 VRB06KT P6SM FEW100=



000
FTUS45 KPUB 011739
TAFCOS
TAF
KCOS 011739Z 0118/0218 16015G25KT P6SM FEW050 FEW100
     FM012200 15012KT P6SM FEW070 SCT100
     FM020300 VRB06KT P6SM FEW080=



000
FTUS45 KPUB 011739
TAFALS
TAF
KALS 011739Z 0118/0218 VRB06KT P6SM SKC
     FM011900 27014KT P6SM SCT090
     FM020100 33010KT P6SM FEW090
     FM020400 VRB04KT P6SM FEW090=



000
FTUS45 KPUB 011739
TAFPUB
TAF
KPUB 011739Z 0118/0218 14009KT P6SM FEW070 FEW120
     FM012200 09015KT P6SM SCT110
     FM020300 VRB06KT P6SM FEW100=



000
FTUS45 KPUB 011127
TAFCOS
TAF
KCOS 011127Z 0112/0212 VRB06KT P6SM FEW040 SCT120
     FM011500 16010KT P6SM FEW100
     FM012200 11012KT P6SM SCT100
     FM020200 04007KT P6SM SKC=



000
FTUS45 KPUB 011127
TAFALS
TAF
KALS 011127Z 0112/0212 20008KT P6SM SKC
     FM011900 27014KT P6SM SCT090
     FM020100 33010KT P6SM FEW090
     FM020400 VRB04KT P6SM SKC=



000
FTUS45 KPUB 011127
TAFPUB
TAF
KPUB 011127Z 0112/0212 VRB06KT P6SM SCT060 SCT120
     FM011800 15010KT P6SM FEW110
     FM012200 09015KT P6SM SCT110
     FM020200 04007KT P6SM SKC=



000
FTUS45 KPUB 011127
TAFPUB
TAF
KPUB 011127Z 0112/0212 VRB06KT P6SM SCT060 SCT120
     FM011800 15010KT P6SM FEW110
     FM012200 09015KT P6SM SCT110
     FM020200 04007KT P6SM SKC=



000
FTUS45 KPUB 011127
TAFALS
TAF
KALS 011127Z 0112/0212 20008KT P6SM SKC
     FM011900 27014KT P6SM SCT090
     FM020100 33010KT P6SM FEW090
     FM020400 VRB04KT P6SM SKC=



000
FTUS45 KPUB 011127
TAFCOS
TAF
KCOS 011127Z 0112/0212 VRB06KT P6SM FEW040 SCT120
     FM011500 16010KT P6SM FEW100
     FM012200 11012KT P6SM SCT100
     FM020200 04007KT P6SM SKC=



000
FTUS45 KPUB 010520
TAFCOS
TAF
KCOS 010520Z 0106/0206 VRB06KT P6SM SKC
     FM011500 16010KT P6SM FEW100
     FM012200 11012KT P6SM SCT100
     FM020200 04007KT P6SM SKC=



000
FTUS45 KPUB 010520
TAFALS
TAF
KALS 010520Z 0106/0206 20008KT P6SM SKC
     FM011900 27014KT P6SM SCT090
     FM020100 33010KT P6SM FEW090
     FM020400 VRB04KT P6SM SKC=



000
FTUS45 KPUB 010520
TAFPUB
TAF
KPUB 010520Z 0106/0206 VRB05KT P6SM SKC
     FM011900 15010KT P6SM FEW110
     FM012200 09015KT P6SM SCT110
     FM020200 04007KT P6SM SKC=



000
FTUS45 KPUB 010520
TAFCOS
TAF
KCOS 010520Z 0106/0206 VRB06KT P6SM SKC
     FM011500 16010KT P6SM FEW100
     FM012200 11012KT P6SM SCT100
     FM020200 04007KT P6SM SKC=



000
FTUS45 KPUB 010520
TAFALS
TAF
KALS 010520Z 0106/0206 20008KT P6SM SKC
     FM011900 27014KT P6SM SCT090
     FM020100 33010KT P6SM FEW090
     FM020400 VRB04KT P6SM SKC=



000
FTUS45 KPUB 010520
TAFPUB
TAF
KPUB 010520Z 0106/0206 VRB05KT P6SM SKC
     FM011900 15010KT P6SM FEW110
     FM012200 09015KT P6SM SCT110
     FM020200 04007KT P6SM SKC=



000
FTUS45 KPUB 010258 AAA
TAFPUB
TAF AMD
KPUB 010258Z 0103/0124 10010KT P6SM FEW080 SCT120
     FM010500 VRB05KT P6SM FEW150
     FM011900 15010KT P6SM FEW130
     FM012200 09015KT P6SM SCT130=



000
FTUS45 KPUB 010258 AAA
TAFPUB
TAF AMD
KPUB 010258Z 0103/0124 10010KT P6SM FEW080 SCT120
     FM010500 VRB05KT P6SM FEW150
     FM011900 15010KT P6SM FEW130
     FM012200 09015KT P6SM SCT130=



000
FTUS45 KPUB 312320
TAFCOS
TAF
KCOS 312320Z 0100/0124 09012KT P6SM FEW100 SCT150
     FM010400 02006KT P6SM FEW150
     FM011500 16010KT P6SM FEW090
     FM012200 11012KT P6SM SCT090=



000
FTUS45 KPUB 312320
TAFALS
TAF
KALS 312320Z 0100/0124 26018G28KT P6SM FEW130 SCT150
     FM010200 27012KT P6SM FEW150
     FM010700 20006KT P6SM SKC
     FM011900 27014KT P6SM SCT090=



000
FTUS45 KPUB 312320
TAFALS
TAF
KALS 312320Z 0100/0124 26018G28KT P6SM FEW130 SCT150
     FM010200 27012KT P6SM FEW150
     FM010700 20006KT P6SM SKC
     FM011900 27014KT P6SM SCT090=



000
FTUS45 KPUB 312320
TAFCOS
TAF
KCOS 312320Z 0100/0124 09012KT P6SM FEW100 SCT150
     FM010400 02006KT P6SM FEW150
     FM011500 16010KT P6SM FEW090
     FM012200 11012KT P6SM SCT090=



000
FTUS45 KPUB 312320
TAFPUB
TAF
KPUB 312320Z 0100/0124 03015G25KT P6SM VCTS SCT080CB BKN120
     FM010100 02012KT P6SM FEW080 SCT120
     FM010500 VRB05KT P6SM FEW150
     FM011900 15010KT P6SM FEW130
     FM012200 09015KT P6SM SCT130=



000
FTUS45 KPUB 312320
TAFPUB
TAF
KPUB 312320Z 0100/0124 03015G25KT P6SM VCTS SCT080CB BKN120
     FM010100 02012KT P6SM FEW080 SCT120
     FM010500 VRB05KT P6SM FEW150
     FM011900 15010KT P6SM FEW130
     FM012200 09015KT P6SM SCT130=



000
FTUS45 KPUB 312226 AAC
TAFCOS
TAF AMD
KCOS 312226Z 3122/0118 06017G27KT P6SM VCTS FEW090CB SCT130
     FM010000 04010G20KT P6SM FEW080 BKN100
     FM010700 VRB06KT P6SM FEW080 SCT120=



000
FTUS45 KPUB 312226 AAC
TAFCOS
TAF AMD
KCOS 312226Z 3122/0118 06017G27KT P6SM VCTS FEW090CB SCT130
     FM010000 04010G20KT P6SM FEW080 BKN100
     FM010700 VRB06KT P6SM FEW080 SCT120=



000
FTUS45 KPUB 312203 AAD
TAFPUB
TAF AMD
KPUB 312203Z 3122/0118 01025G36KT P6SM VCTS SCT080CB BKN120
     FM010100 01010G20KT P6SM FEW100 BKN140
     FM010600 VRB06KT P6SM FEW100 SCT150=



000
FTUS45 KPUB 312203 AAD
TAFPUB
TAF AMD
KPUB 312203Z 3122/0118 01025G36KT P6SM VCTS SCT080CB BKN120
     FM010100 01010G20KT P6SM FEW100 BKN140
     FM010600 VRB06KT P6SM FEW100 SCT150=



000
FTUS45 KPUB 312105 AAC
TAFPUB
TAF AMD
KPUB 312105Z 3121/0118 30017G27KT P6SM FEW100 SCT130 BKN140
     FM010100 01010G20KT P6SM FEW100 BKN140
     FM010600 VRB06KT P6SM FEW100 SCT150=



000
FTUS45 KPUB 312105 AAC
TAFPUB
TAF AMD
KPUB 312105Z 3121/0118 30017G27KT P6SM FEW100 SCT130 BKN140
     FM010100 01010G20KT P6SM FEW100 BKN140
     FM010600 VRB06KT P6SM FEW100 SCT150=



000
FTUS45 KPUB 312104 AAB
TAFCOS
TAF AMD
KCOS 312104Z 3121/0118 03017G27KT P6SM FEW080 SCT120 BKN150
     FM010000 04010G20KT P6SM FEW080 BKN100
     FM010700 VRB06KT P6SM FEW080 SCT120=



000
FTUS45 KPUB 312104 AAB
TAFCOS
TAF AMD
KCOS 312104Z 3121/0118 03017G27KT P6SM FEW080 SCT120 BKN150
     FM010000 04010G20KT P6SM FEW080 BKN100
     FM010700 VRB06KT P6SM FEW080 SCT120=



000
FTUS45 KPUB 312019 AAA
TAFCOS
TAF AMD
KCOS 312019Z 3120/0118 06010G20KT P6SM FEW080 BKN130
     FM010000 04010G20KT P6SM FEW080 BKN100
     FM010700 VRB06KT P6SM FEW080 SCT120=



000
FTUS45 KPUB 312019 AAA
TAFCOS
TAF AMD
KCOS 312019Z 3120/0118 06010G20KT P6SM FEW080 BKN130
     FM010000 04010G20KT P6SM FEW080 BKN100
     FM010700 VRB06KT P6SM FEW080 SCT120=



000
FTUS45 KPUB 311743
TAFALS
TAF
KALS 311743Z 3118/0118 26018G28KT P6SM FEW130 SCT150
     FM010200 21010KT P6SM FEW130 SCT150
     FM010700 VRB06KT P6SM FEW130 SCT150=



000
FTUS45 KPUB 311743
TAFCOS
TAF
KCOS 311743Z 3118/0118 10008KT P6SM FEW110 SCT150
     FM311900 28018G28KT P6SM FEW080 BKN100
     FM010000 02010G20KT P6SM FEW080 BKN100
     FM010700 VRB06KT P6SM FEW080 SCT120=



000
FTUS45 KPUB 311743
TAFCOS
TAF
KCOS 311743Z 3118/0118 10008KT P6SM FEW110 SCT150
     FM311900 28018G28KT P6SM FEW080 BKN100
     FM010000 02010G20KT P6SM FEW080 BKN100
     FM010700 VRB06KT P6SM FEW080 SCT120=



000
FTUS45 KPUB 311743
TAFALS
TAF
KALS 311743Z 3118/0118 26018G28KT P6SM FEW130 SCT150
     FM010200 21010KT P6SM FEW130 SCT150
     FM010700 VRB06KT P6SM FEW130 SCT150=



000
FTUS45 KPUB 311743
TAFPUB
TAF
KPUB 311743Z 3118/0118 VRB06KT P6SM FEW120 SCT160
     FM311900 27017G27KT P6SM FEW120 SCT150
     FM010100 01010G20KT P6SM FEW100 BKN130
     FM010600 VRB06KT P6SM FEW100 SCT150=



000
FTUS45 KPUB 311658 AAB
TAFALS
TAF AMD
KALS 311658Z 3117/0112 26018G28KT P6SM SCT150
     FM312000 26015G25KT P6SM FEW150
     FM010200 21010KT P6SM FEW200=



000
FTUS45 KPUB 311658 AAB
TAFALS
TAF AMD
KALS 311658Z 3117/0112 26018G28KT P6SM SCT150
     FM312000 26015G25KT P6SM FEW150
     FM010200 21010KT P6SM FEW200=



000
FTUS45 KPUB 311459 AAA
TAFALS
TAF AMD
KALS 311459Z 3115/0112 19010G20KT P6SM SCT150
     FM312000 26015G25KT P6SM FEW150
     FM010200 21010KT P6SM FEW200=



000
FTUS45 KPUB 311459 AAA
TAFALS
TAF AMD
KALS 311459Z 3115/0112 19010G20KT P6SM SCT150
     FM312000 26015G25KT P6SM FEW150
     FM010200 21010KT P6SM FEW200=



000
FTUS45 KPUB 311152
TAFALS
TAF
KALS 311152Z 3112/0112 18005KT P6SM FEW140
     FM311500 21010KT P6SM SCT200
     FM312000 26015G25KT P6SM FEW150
     FM010200 21010KT P6SM FEW200=



000
FTUS45 KPUB 311152
TAFCOS
TAF
KCOS 311152Z 3112/0112 VRB06KT P6SM SCT150
     FM311700 22013KT P6SM FEW120 SCT150
     FM311900 28018G28KT P6SM BKN100
     FM010200 36010KT P6SM FEW200=



000
FTUS45 KPUB 311152
TAFPUB
TAF
KPUB 311152Z 3112/0112 VRB06KT P6SM FEW120 SCT200
     FM311800 25010KT P6SM FEW150
     FM312000 27017G27KT P6SM SCT150
     FM010200 01010KT P6SM FEW200=



000
FTUS45 KPUB 311152
TAFALS
TAF
KALS 311152Z 3112/0112 18005KT P6SM FEW140
     FM311500 21010KT P6SM SCT200
     FM312000 26015G25KT P6SM FEW150
     FM010200 21010KT P6SM FEW200=



000
FTUS45 KPUB 311152
TAFCOS
TAF
KCOS 311152Z 3112/0112 VRB06KT P6SM SCT150
     FM311700 22013KT P6SM FEW120 SCT150
     FM311900 28018G28KT P6SM BKN100
     FM010200 36010KT P6SM FEW200=



000
FTUS45 KPUB 311152
TAFPUB
TAF
KPUB 311152Z 3112/0112 VRB06KT P6SM FEW120 SCT200
     FM311800 25010KT P6SM FEW150
     FM312000 27017G27KT P6SM SCT150
     FM010200 01010KT P6SM FEW200=



    US Dept of Commerce
    National Oceanic and Atmospheric Administration
    National Weather Service
    1325 East West Highway
    Silver Spring, MD 20910
    Page Author: NWS Internet Services Team
Disclaimer
Information Quality
Credits
Glossary
Privacy Policy
Freedom of Information Act (FOIA)
About Us
Career Opportunities